KLM312 LFKB-EDDF
Flight info
| Callsign | KLM312 |
|---|---|
| Flight time | 1h 32m |
| Altitude | 19000 |
| Route | MOULE L146 ELB/N0456F380 DCT GOVGO DCT LEGLO DCT ABREG DCT LADOL T163 EMPAX |
| Aircraft | B737/M-SDE2E3FGHIRWXY/LB1 |
Departure
| Time | 2026-04-14 08:29 |
|---|---|
| Airport | Bastia-Poretta International airport (LFKB) |
Arrival
| Time | 2026-04-14 10:01 |
|---|---|
| Airport | Frankfurt Main Airport (EDDF) |
| Time | Latitude | Longitude | Altitude | Speed | Heading |
|---|---|---|---|---|---|
| 2026-04-14 08:05 | 42.54843 | 9.48162 | 38 ft | 0 kts | 283° |
| 2026-04-14 08:21 | 42.54841 | 9.48175 | 38 ft | 4 kts | 285° |
| 2026-04-14 08:22 | 42.54833 | 9.48210 | 38 ft | 4 kts | 283° |
| 2026-04-14 08:22 | 42.54831 | 9.48245 | 36 ft | 4 kts | 267° |
| 2026-04-14 08:22 | 42.54832 | 9.48281 | 38 ft | 4 kts | 261° |
| 2026-04-14 08:22 | 42.54835 | 9.48297 | 38 ft | 1 kts | 258° |
| 2026-04-14 08:23 | 42.54835 | 9.48298 | 38 ft | 0 kts | 258° |
| 2026-04-14 08:25 | 42.54815 | 9.48286 | 38 ft | 7 kts | 180° |
| 2026-04-14 08:26 | 42.54745 | 9.48314 | 37 ft | 15 kts | 162° |
| 2026-04-14 08:26 | 42.54622 | 9.48366 | 39 ft | 20 kts | 163° |
| 2026-04-14 08:26 | 42.54488 | 9.48420 | 40 ft | 20 kts | 172° |
| 2026-04-14 08:26 | 42.54355 | 9.48434 | 41 ft | 19 kts | 162° |
| 2026-04-14 08:27 | 42.54229 | 9.48485 | 42 ft | 19 kts | 163° |
| 2026-04-14 08:27 | 42.54135 | 9.48591 | 43 ft | 17 kts | 111° |
| 2026-04-14 08:27 | 42.54151 | 9.48736 | 41 ft | 16 kts | 53° |
| 2026-04-14 08:27 | 42.54241 | 9.48798 | 42 ft | 13 kts | 357° |
| 2026-04-14 08:28 | 42.54263 | 9.48791 | 42 ft | 2 kts | 344° |
| 2026-04-14 08:28 | 42.54453 | 9.48705 | 40 ft | 63 kts | 342° |
| 2026-04-14 08:28 | 42.55087 | 9.48451 | 39 ft | 123 kts | 342° |
| 2026-04-14 08:28 | 42.56049 | 9.48059 | 151 ft | 160 kts | 343° |
| 2026-04-14 08:29 | 42.57142 | 9.47648 | 769 ft | 168 kts | 2° |
| 2026-04-14 08:29 | 42.58093 | 9.48311 | 1777 ft | 157 kts | 58° |
| 2026-04-14 08:29 | 42.58234 | 9.49810 | 2607 ft | 178 kts | 105° |
| 2026-04-14 08:29 | 42.57592 | 9.51431 | 2973 ft | 217 kts | 133° |
| 2026-04-14 08:30 | 42.56364 | 9.52840 | 3252 ft | 244 kts | 140° |
| 2026-04-14 08:30 | 42.54975 | 9.54319 | 3668 ft | 265 kts | 140° |
| 2026-04-14 08:30 | 42.53517 | 9.55902 | 4490 ft | 271 kts | 139° |
| 2026-04-14 08:30 | 42.52046 | 9.57540 | 5367 ft | 276 kts | 138° |
| 2026-04-14 08:31 | 42.50576 | 9.59209 | 6374 ft | 276 kts | 138° |
| 2026-04-14 08:31 | 42.47782 | 9.62815 | 8225 ft | 282 kts | 116° |
| 2026-04-14 08:31 | 42.47379 | 9.65371 | 9234 ft | 282 kts | 84° |
| 2026-04-14 08:32 | 42.47928 | 9.67871 | 10170 ft | 285 kts | 60° |
| 2026-04-14 08:32 | 42.49259 | 9.70030 | 10577 ft | 311 kts | 39° |
| 2026-04-14 08:32 | 42.51159 | 9.71557 | 10791 ft | 340 kts | 20° |
| 2026-04-14 08:32 | 42.53557 | 9.72328 | 11309 ft | 356 kts | 11° |
| 2026-04-14 08:33 | 42.55971 | 9.73003 | 12082 ft | 363 kts | 13° |
| 2026-04-14 08:33 | 42.58481 | 9.73806 | 12953 ft | 368 kts | 17° |
| 2026-04-14 08:33 | 42.60715 | 9.75392 | 13762 ft | 371 kts | 41° |
| 2026-04-14 08:33 | 42.62354 | 9.78059 | 14769 ft | 369 kts | 60° |
| 2026-04-14 08:34 | 42.63279 | 9.81305 | 15632 ft | 372 kts | 76° |
| 2026-04-14 08:34 | 42.63871 | 9.84815 | 16346 ft | 382 kts | 78° |
| 2026-04-14 08:34 | 42.64428 | 9.88338 | 17015 ft | 391 kts | 78° |
| 2026-04-14 08:34 | 42.65028 | 9.92010 | 17873 ft | 395 kts | 78° |
| 2026-04-14 08:35 | 42.65635 | 9.95618 | 18643 ft | 399 kts | 78° |
| 2026-04-14 08:35 | 42.66263 | 9.99303 | 19362 ft | 403 kts | 78° |
| 2026-04-14 08:35 | 42.66902 | 10.03027 | 20065 ft | 407 kts | 78° |
| 2026-04-14 08:35 | 42.67546 | 10.06785 | 20758 ft | 411 kts | 78° |
| 2026-04-14 08:36 | 42.68197 | 10.10592 | 21450 ft | 415 kts | 78° |
| 2026-04-14 08:36 | 42.68851 | 10.14428 | 22117 ft | 420 kts | 78° |
| 2026-04-14 08:36 | 42.69513 | 10.18325 | 22769 ft | 424 kts | 78° |
| 2026-04-14 08:36 | 42.70177 | 10.22241 | 23386 ft | 428 kts | 78° |
| 2026-04-14 08:37 | 42.70849 | 10.26216 | 23888 ft | 433 kts | 78° |
| 2026-04-14 08:37 | 42.71621 | 10.30183 | 24430 ft | 437 kts | 69° |
| 2026-04-14 08:37 | 42.73181 | 10.33734 | 24977 ft | 443 kts | 50° |
| 2026-04-14 08:37 | 42.75519 | 10.36484 | 25559 ft | 447 kts | 32° |
| 2026-04-14 08:38 | 42.78377 | 10.38171 | 26052 ft | 451 kts | 15° |
| 2026-04-14 08:38 | 42.81497 | 10.38660 | 26480 ft | 455 kts | 357° |
| 2026-04-14 08:38 | 42.84672 | 10.38292 | 26938 ft | 458 kts | 353° |
| 2026-04-14 08:38 | 42.87853 | 10.37793 | 27345 ft | 462 kts | 353° |
| 2026-04-14 08:39 | 42.91064 | 10.37266 | 27778 ft | 466 kts | 353° |
| 2026-04-14 08:39 | 42.94294 | 10.36757 | 28214 ft | 469 kts | 353° |
| 2026-04-14 08:39 | 42.97536 | 10.36275 | 28630 ft | 472 kts | 353° |
| 2026-04-14 08:39 | 43.00810 | 10.35811 | 29008 ft | 476 kts | 354° |
| 2026-04-14 08:40 | 43.04114 | 10.35355 | 29404 ft | 479 kts | 354° |
| 2026-04-14 08:40 | 43.07436 | 10.34901 | 29785 ft | 481 kts | 354° |
| 2026-04-14 08:40 | 43.10784 | 10.34443 | 30200 ft | 482 kts | 354° |
| 2026-04-14 08:40 | 43.14108 | 10.33983 | 30716 ft | 479 kts | 354° |
| 2026-04-14 08:41 | 43.17414 | 10.33522 | 31265 ft | 475 kts | 353° |
| 2026-04-14 08:41 | 43.20687 | 10.32959 | 31771 ft | 473 kts | 351° |
| 2026-04-14 08:41 | 43.23946 | 10.32269 | 32236 ft | 473 kts | 350° |
| 2026-04-14 08:41 | 43.27187 | 10.31526 | 32660 ft | 473 kts | 349° |
| 2026-04-14 08:42 | 43.30429 | 10.30767 | 33133 ft | 471 kts | 349° |
| 2026-04-14 08:42 | 43.33612 | 10.30028 | 33578 ft | 469 kts | 349° |
| 2026-04-14 08:42 | 43.36875 | 10.29281 | 33987 ft | 469 kts | 349° |
| 2026-04-14 08:42 | 43.40089 | 10.28556 | 34273 ft | 469 kts | 350° |
| 2026-04-14 08:43 | 43.43272 | 10.27846 | 34532 ft | 470 kts | 350° |
| 2026-04-14 08:43 | 43.46504 | 10.27129 | 34842 ft | 470 kts | 350° |
| 2026-04-14 08:43 | 43.49737 | 10.26413 | 35150 ft | 470 kts | 350° |
| 2026-04-14 08:43 | 43.52963 | 10.25699 | 35450 ft | 469 kts | 350° |
| 2026-04-14 08:44 | 43.56182 | 10.24986 | 35697 ft | 470 kts | 350° |
| 2026-04-14 08:44 | 43.59415 | 10.24269 | 36010 ft | 469 kts | 350° |
| 2026-04-14 08:44 | 43.62631 | 10.23554 | 36384 ft | 467 kts | 350° |
| 2026-04-14 08:44 | 43.65838 | 10.22840 | 36659 ft | 467 kts | 350° |
| 2026-04-14 08:45 | 43.69050 | 10.22124 | 36913 ft | 469 kts | 350° |
| 2026-04-14 08:45 | 43.72265 | 10.21407 | 37189 ft | 469 kts | 350° |
| 2026-04-14 08:45 | 43.75479 | 10.20689 | 37499 ft | 468 kts | 350° |
| 2026-04-14 08:45 | 43.78681 | 10.19972 | 37846 ft | 465 kts | 351° |
| 2026-04-14 08:46 | 43.85084 | 10.18539 | 37896 ft | 464 kts | 351° |
| 2026-04-14 08:46 | 43.91439 | 10.17112 | 37894 ft | 462 kts | 351° |
| 2026-04-14 08:47 | 43.97784 | 10.15683 | 37888 ft | 461 kts | 351° |
| 2026-04-14 08:47 | 44.04111 | 10.14257 | 37894 ft | 461 kts | 351° |
| 2026-04-14 08:48 | 44.10447 | 10.12826 | 37874 ft | 461 kts | 351° |
| 2026-04-14 08:48 | 44.16770 | 10.11394 | 37885 ft | 461 kts | 351° |
| 2026-04-14 08:49 | 44.23101 | 10.09958 | 37897 ft | 461 kts | 351° |
| 2026-04-14 08:49 | 44.28379 | 10.08757 | 37902 ft | 461 kts | 351° |
| 2026-04-14 08:50 | 44.34750 | 10.07305 | 37936 ft | 461 kts | 351° |
| 2026-04-14 08:50 | 44.41042 | 10.05868 | 37936 ft | 461 kts | 351° |
| 2026-04-14 08:51 | 44.47418 | 10.04409 | 37937 ft | 462 kts | 351° |
| 2026-04-14 08:51 | 44.53706 | 10.02966 | 37944 ft | 462 kts | 351° |
| 2026-04-14 08:52 | 44.60057 | 10.01507 | 37952 ft | 461 kts | 351° |
| 2026-04-14 08:52 | 44.66395 | 10.00047 | 37962 ft | 462 kts | 351° |
| 2026-04-14 08:53 | 44.72740 | 9.98581 | 37964 ft | 462 kts | 351° |
| 2026-04-14 08:53 | 44.79079 | 9.97114 | 37948 ft | 463 kts | 351° |
| 2026-04-14 08:54 | 44.85452 | 9.95638 | 37935 ft | 462 kts | 351° |
| 2026-04-14 08:54 | 44.91794 | 9.94163 | 37950 ft | 461 kts | 351° |
| 2026-04-14 08:55 | 44.98122 | 9.92687 | 37936 ft | 461 kts | 351° |
| 2026-04-14 08:55 | 45.04441 | 9.91211 | 37952 ft | 460 kts | 351° |
| 2026-04-14 08:56 | 45.10762 | 9.89734 | 37939 ft | 460 kts | 351° |
| 2026-04-14 08:56 | 45.17074 | 9.88254 | 37945 ft | 459 kts | 351° |
| 2026-04-14 08:57 | 45.23382 | 9.86770 | 37949 ft | 459 kts | 351° |
| 2026-04-14 08:57 | 45.29681 | 9.85285 | 37944 ft | 460 kts | 351° |
| 2026-04-14 08:58 | 45.35385 | 9.83938 | 37949 ft | 460 kts | 351° |
| 2026-04-14 08:58 | 45.40817 | 9.82653 | 37940 ft | 461 kts | 351° |
| 2026-04-14 08:59 | 45.47142 | 9.81154 | 37967 ft | 461 kts | 351° |
| 2026-04-14 08:59 | 45.53483 | 9.79646 | 37950 ft | 462 kts | 350° |
| 2026-04-14 09:00 | 45.59807 | 9.78140 | 37978 ft | 460 kts | 351° |
| 2026-04-14 09:00 | 45.66106 | 9.76602 | 37958 ft | 459 kts | 349° |
| 2026-04-14 09:01 | 45.72335 | 9.74625 | 37945 ft | 458 kts | 347° |
| 2026-04-14 09:01 | 45.78520 | 9.72506 | 37935 ft | 457 kts | 347° |
| 2026-04-14 09:02 | 45.84714 | 9.70419 | 37929 ft | 457 kts | 347° |
| 2026-04-14 09:02 | 45.90905 | 9.68366 | 37941 ft | 457 kts | 347° |
| 2026-04-14 09:03 | 45.97096 | 9.66317 | 37929 ft | 457 kts | 347° |
| 2026-04-14 09:03 | 46.03259 | 9.64272 | 37945 ft | 457 kts | 347° |
| 2026-04-14 09:04 | 46.09461 | 9.62208 | 37945 ft | 458 kts | 347° |
| 2026-04-14 09:04 | 46.15671 | 9.60136 | 37936 ft | 459 kts | 347° |
| 2026-04-14 09:05 | 46.21891 | 9.58057 | 37969 ft | 458 kts | 347° |
| 2026-04-14 09:05 | 46.28105 | 9.55973 | 37981 ft | 458 kts | 347° |
| 2026-04-14 09:06 | 46.34323 | 9.53927 | 38007 ft | 458 kts | 348° |
| 2026-04-14 09:06 | 46.40560 | 9.52000 | 37997 ft | 458 kts | 348° |
| 2026-04-14 09:07 | 46.46794 | 9.50083 | 38029 ft | 458 kts | 348° |
| 2026-04-14 09:07 | 46.53023 | 9.48149 | 38029 ft | 458 kts | 348° |
| 2026-04-14 09:08 | 46.59250 | 9.46201 | 38037 ft | 458 kts | 348° |
| 2026-04-14 09:08 | 46.65473 | 9.44246 | 38056 ft | 458 kts | 348° |
| 2026-04-14 09:09 | 46.71685 | 9.42292 | 38081 ft | 458 kts | 348° |
| 2026-04-14 09:09 | 46.77907 | 9.40327 | 38114 ft | 459 kts | 348° |
| 2026-04-14 09:10 | 46.84147 | 9.38354 | 38115 ft | 458 kts | 347° |
| 2026-04-14 09:10 | 46.90357 | 9.36387 | 38110 ft | 456 kts | 347° |
| 2026-04-14 09:11 | 46.96543 | 9.34424 | 38129 ft | 454 kts | 347° |
| 2026-04-14 09:11 | 47.02706 | 9.32459 | 38138 ft | 453 kts | 347° |
| 2026-04-14 09:12 | 47.08871 | 9.30492 | 38139 ft | 453 kts | 347° |
| 2026-04-14 09:12 | 47.15033 | 9.28521 | 38131 ft | 453 kts | 347° |
| 2026-04-14 09:13 | 47.21183 | 9.26550 | 38138 ft | 453 kts | 347° |
| 2026-04-14 09:13 | 47.27355 | 9.24564 | 38154 ft | 454 kts | 347° |
| 2026-04-14 09:14 | 47.33546 | 9.22569 | 38146 ft | 455 kts | 347° |
| 2026-04-14 09:14 | 47.39739 | 9.20569 | 38154 ft | 456 kts | 347° |
| 2026-04-14 09:15 | 47.45943 | 9.18562 | 38155 ft | 456 kts | 347° |
| 2026-04-14 09:15 | 47.52128 | 9.16554 | 38134 ft | 455 kts | 347° |
| 2026-04-14 09:16 | 47.58299 | 9.14546 | 38134 ft | 453 kts | 347° |
| 2026-04-14 09:16 | 47.64450 | 9.12540 | 38135 ft | 452 kts | 347° |
| 2026-04-14 09:17 | 47.70595 | 9.10531 | 38137 ft | 452 kts | 347° |
| 2026-04-14 09:17 | 47.76696 | 9.08532 | 38139 ft | 452 kts | 347° |
| 2026-04-14 09:18 | 47.82878 | 9.06501 | 38132 ft | 452 kts | 347° |
| 2026-04-14 09:18 | 47.88738 | 9.04571 | 38143 ft | 452 kts | 347° |
| 2026-04-14 09:19 | 47.93762 | 9.02913 | 38127 ft | 452 kts | 347° |
| 2026-04-14 09:19 | 47.99905 | 9.00881 | 38133 ft | 452 kts | 347° |
| 2026-04-14 09:20 | 48.05643 | 8.98979 | 38132 ft | 452 kts | 347° |
| 2026-04-14 09:20 | 48.10557 | 8.97346 | 38137 ft | 452 kts | 347° |
| 2026-04-14 09:21 | 48.15717 | 8.95768 | 38127 ft | 453 kts | 353° |
| 2026-04-14 09:21 | 48.21115 | 8.95765 | 38037 ft | 455 kts | 5° |
| 2026-04-14 09:22 | 48.23197 | 8.96094 | 37540 ft | 462 kts | 6° |
| 2026-04-14 09:22 | 48.25310 | 8.96459 | 37137 ft | 462 kts | 6° |
| 2026-04-14 09:22 | 48.27943 | 8.96920 | 36608 ft | 458 kts | 6° |
| 2026-04-14 09:22 | 48.30767 | 8.97402 | 35925 ft | 457 kts | 6° |
| 2026-04-14 09:23 | 48.33207 | 8.97801 | 35280 ft | 458 kts | 5° |
| 2026-04-14 09:23 | 48.35684 | 8.98192 | 34650 ft | 459 kts | 5° |
| 2026-04-14 09:23 | 48.38883 | 8.98683 | 33626 ft | 462 kts | 5° |
| 2026-04-14 09:23 | 48.42087 | 8.99171 | 32621 ft | 463 kts | 4° |
| 2026-04-14 09:24 | 48.45249 | 8.99653 | 31842 ft | 460 kts | 4° |
| 2026-04-14 09:24 | 48.48263 | 9.00117 | 31650 ft | 445 kts | 4° |
| 2026-04-14 09:24 | 48.51297 | 9.00585 | 31370 ft | 432 kts | 4° |
| 2026-04-14 09:24 | 48.54249 | 9.01039 | 31112 ft | 422 kts | 4° |
| 2026-04-14 09:25 | 48.57146 | 9.01485 | 30845 ft | 415 kts | 4° |
| 2026-04-14 09:25 | 48.60019 | 9.01925 | 30601 ft | 415 kts | 4° |
| 2026-04-14 09:25 | 48.62889 | 9.02370 | 30356 ft | 415 kts | 4° |
| 2026-04-14 09:25 | 48.65798 | 9.02956 | 30121 ft | 429 kts | 6° |
| 2026-04-14 09:26 | 48.68807 | 9.03679 | 29886 ft | 446 kts | 7° |
| 2026-04-14 09:26 | 48.71891 | 9.04456 | 29599 ft | 450 kts | 7° |
| 2026-04-14 09:26 | 48.74974 | 9.05230 | 29305 ft | 448 kts | 7° |
| 2026-04-14 09:26 | 48.78037 | 9.05983 | 29022 ft | 446 kts | 7° |
| 2026-04-14 09:27 | 48.81092 | 9.06720 | 28385 ft | 442 kts | 7° |
| 2026-04-14 09:27 | 48.84111 | 9.07443 | 27769 ft | 436 kts | 7° |
| 2026-04-14 09:27 | 48.87086 | 9.08154 | 27065 ft | 431 kts | 7° |
| 2026-04-14 09:27 | 48.90038 | 9.08785 | 26323 ft | 427 kts | 5° |
| 2026-04-14 09:28 | 48.92985 | 9.09200 | 25607 ft | 423 kts | 3° |
| 2026-04-14 09:28 | 48.95903 | 9.09556 | 24903 ft | 420 kts | 4° |
| 2026-04-14 09:28 | 48.98813 | 9.09936 | 24205 ft | 417 kts | 4° |
| 2026-04-14 09:28 | 49.01691 | 9.10338 | 23494 ft | 415 kts | 4° |
| 2026-04-14 09:29 | 49.04548 | 9.10744 | 22795 ft | 410 kts | 4° |
| 2026-04-14 09:29 | 49.07368 | 9.11149 | 22151 ft | 404 kts | 4° |
| 2026-04-14 09:29 | 49.10100 | 9.11542 | 21439 ft | 401 kts | 4° |
| 2026-04-14 09:29 | 49.12878 | 9.11940 | 20767 ft | 397 kts | 4° |
| 2026-04-14 09:30 | 49.15661 | 9.12339 | 20136 ft | 393 kts | 4° |
| 2026-04-14 09:30 | 49.18240 | 9.12708 | 19523 ft | 390 kts | 4° |
| 2026-04-14 09:30 | 49.20966 | 9.13099 | 18888 ft | 387 kts | 4° |
| 2026-04-14 09:30 | 49.23504 | 9.13463 | 18282 ft | 384 kts | 4° |
| 2026-04-14 09:31 | 49.26162 | 9.13845 | 17613 ft | 380 kts | 4° |
| 2026-04-14 09:31 | 49.28727 | 9.14230 | 16999 ft | 376 kts | 6° |
| 2026-04-14 09:31 | 49.31285 | 9.14944 | 16426 ft | 372 kts | 12° |
| 2026-04-14 09:31 | 49.33754 | 9.15861 | 16231 ft | 357 kts | 13° |
| 2026-04-14 09:32 | 49.36101 | 9.16773 | 16145 ft | 340 kts | 13° |
| 2026-04-14 09:32 | 49.38339 | 9.17627 | 16132 ft | 322 kts | 12° |
| 2026-04-14 09:32 | 49.42466 | 9.19142 | 16122 ft | 291 kts | 11° |
| 2026-04-14 09:33 | 49.44392 | 9.19834 | 16010 ft | 279 kts | 11° |
| 2026-04-14 09:33 | 49.46254 | 9.20498 | 15666 ft | 271 kts | 11° |
| 2026-04-14 09:33 | 49.48086 | 9.21150 | 15218 ft | 270 kts | 12° |
| 2026-04-14 09:33 | 49.49920 | 9.21801 | 14703 ft | 271 kts | 12° |
| 2026-04-14 09:34 | 49.51761 | 9.22457 | 14147 ft | 273 kts | 11° |
| 2026-04-14 09:34 | 49.53625 | 9.23120 | 13498 ft | 277 kts | 12° |
| 2026-04-14 09:34 | 49.55522 | 9.23795 | 12750 ft | 283 kts | 11° |
| 2026-04-14 09:34 | 49.57462 | 9.24489 | 11857 ft | 292 kts | 11° |
| 2026-04-14 09:35 | 49.59480 | 9.25209 | 10853 ft | 304 kts | 12° |
| 2026-04-14 09:35 | 49.61620 | 9.25974 | 10518 ft | 328 kts | 11° |
| 2026-04-14 09:35 | 49.63877 | 9.26783 | 10379 ft | 335 kts | 12° |
| 2026-04-14 09:35 | 49.66110 | 9.27586 | 10237 ft | 323 kts | 12° |
| 2026-04-14 09:36 | 49.68231 | 9.28349 | 10147 ft | 301 kts | 12° |
| 2026-04-14 09:36 | 49.69575 | 9.28834 | 10139 ft | 287 kts | 12° |
| 2026-04-14 09:36 | 49.71466 | 9.29514 | 10074 ft | 274 kts | 12° |
| 2026-04-14 09:36 | 49.73282 | 9.30166 | 10014 ft | 271 kts | 12° |
| 2026-04-14 09:37 | 49.75119 | 9.30824 | 9964 ft | 278 kts | 12° |
| 2026-04-14 09:37 | 49.77042 | 9.31516 | 9876 ft | 283 kts | 12° |
| 2026-04-14 09:37 | 49.78959 | 9.32206 | 9834 ft | 282 kts | 12° |
| 2026-04-14 09:37 | 49.80850 | 9.32887 | 9757 ft | 281 kts | 12° |
| 2026-04-14 09:38 | 49.82754 | 9.33549 | 9687 ft | 280 kts | 6° |
| 2026-04-14 09:38 | 49.84662 | 9.33330 | 9600 ft | 275 kts | 338° |
| 2026-04-14 09:38 | 49.86251 | 9.31784 | 9547 ft | 270 kts | 312° |
| 2026-04-14 09:38 | 49.87275 | 9.29409 | 9465 ft | 265 kts | 289° |
| 2026-04-14 09:39 | 49.87841 | 9.26704 | 9440 ft | 265 kts | 285° |
| 2026-04-14 09:39 | 49.88356 | 9.23946 | 9369 ft | 267 kts | 285° |
| 2026-04-14 09:39 | 49.88869 | 9.21169 | 9305 ft | 268 kts | 285° |
| 2026-04-14 09:39 | 49.89381 | 9.18424 | 9247 ft | 268 kts | 285° |
| 2026-04-14 09:40 | 49.89901 | 9.15657 | 9173 ft | 267 kts | 285° |
| 2026-04-14 09:40 | 49.90429 | 9.12864 | 9100 ft | 265 kts | 285° |
| 2026-04-14 09:40 | 49.90940 | 9.10169 | 9039 ft | 263 kts | 286° |
| 2026-04-14 09:40 | 49.91457 | 9.07443 | 8978 ft | 262 kts | 286° |
| 2026-04-14 09:41 | 49.91970 | 9.04736 | 8916 ft | 262 kts | 286° |
| 2026-04-14 09:41 | 49.92484 | 9.02022 | 8853 ft | 264 kts | 286° |
| 2026-04-14 09:41 | 49.93007 | 8.99282 | 8801 ft | 265 kts | 286° |
| 2026-04-14 09:41 | 49.93530 | 8.96547 | 8742 ft | 264 kts | 286° |
| 2026-04-14 09:42 | 49.94050 | 8.93824 | 8687 ft | 262 kts | 286° |
| 2026-04-14 09:42 | 49.94567 | 8.91105 | 8614 ft | 263 kts | 287° |
| 2026-04-14 09:42 | 49.95086 | 8.88378 | 8552 ft | 263 kts | 286° |
| 2026-04-14 09:42 | 49.95602 | 8.85665 | 8492 ft | 262 kts | 287° |
| 2026-04-14 09:43 | 49.96117 | 8.82955 | 8423 ft | 261 kts | 287° |
| 2026-04-14 09:43 | 49.96626 | 8.80266 | 8361 ft | 260 kts | 287° |
| 2026-04-14 09:43 | 49.97137 | 8.77565 | 8304 ft | 260 kts | 287° |
| 2026-04-14 09:43 | 49.97644 | 8.74876 | 8250 ft | 259 kts | 287° |
| 2026-04-14 09:44 | 49.98039 | 8.72153 | 8167 ft | 260 kts | 272° |
| 2026-04-14 09:44 | 49.97741 | 8.69384 | 8125 ft | 261 kts | 252° |
| 2026-04-14 09:44 | 49.97115 | 8.66748 | 8070 ft | 261 kts | 251° |
| 2026-04-14 09:44 | 49.96461 | 8.64113 | 7997 ft | 262 kts | 250° |
| 2026-04-14 09:45 | 49.95804 | 8.61461 | 7938 ft | 263 kts | 251° |
| 2026-04-14 09:45 | 49.95156 | 8.58810 | 7871 ft | 263 kts | 250° |
| 2026-04-14 09:45 | 49.94511 | 8.56149 | 7813 ft | 263 kts | 251° |
| 2026-04-14 09:45 | 49.93870 | 8.53496 | 7764 ft | 264 kts | 251° |
| 2026-04-14 09:46 | 49.93197 | 8.50817 | 7691 ft | 269 kts | 251° |
| 2026-04-14 09:46 | 49.92544 | 8.48091 | 7498 ft | 271 kts | 252° |
| 2026-04-14 09:46 | 49.91907 | 8.45406 | 7370 ft | 262 kts | 251° |
| 2026-04-14 09:46 | 49.91277 | 8.42780 | 7287 ft | 257 kts | 251° |
| 2026-04-14 09:47 | 49.90661 | 8.40218 | 7219 ft | 258 kts | 251° |
| 2026-04-14 09:47 | 49.90018 | 8.37553 | 7174 ft | 262 kts | 251° |
| 2026-04-14 09:47 | 49.89385 | 8.34932 | 7074 ft | 264 kts | 251° |
| 2026-04-14 09:47 | 49.88736 | 8.32251 | 6871 ft | 266 kts | 251° |
| 2026-04-14 09:48 | 49.88088 | 8.29583 | 6695 ft | 264 kts | 251° |
| 2026-04-14 09:48 | 49.87444 | 8.26933 | 6509 ft | 262 kts | 251° |
| 2026-04-14 09:48 | 49.86801 | 8.24293 | 6302 ft | 261 kts | 251° |
| 2026-04-14 09:48 | 49.86174 | 8.21718 | 6117 ft | 261 kts | 251° |
| 2026-04-14 09:49 | 49.85534 | 8.19087 | 5929 ft | 261 kts | 251° |
| 2026-04-14 09:49 | 49.84891 | 8.16450 | 5736 ft | 261 kts | 251° |
| 2026-04-14 09:49 | 49.84258 | 8.13865 | 5517 ft | 251 kts | 251° |
| 2026-04-14 09:49 | 49.83654 | 8.11395 | 5308 ft | 241 kts | 251° |
| 2026-04-14 09:50 | 49.83072 | 8.09013 | 5102 ft | 232 kts | 252° |
| 2026-04-14 09:50 | 49.82505 | 8.06702 | 5025 ft | 230 kts | 251° |
| 2026-04-14 09:50 | 49.81934 | 8.04374 | 5004 ft | 231 kts | 251° |
| 2026-04-14 09:50 | 49.81405 | 8.02214 | 5000 ft | 229 kts | 251° |
| 2026-04-14 09:51 | 49.80832 | 7.99910 | 4991 ft | 229 kts | 251° |
| 2026-04-14 09:51 | 49.80329 | 7.97592 | 4985 ft | 226 kts | 264° |
| 2026-04-14 09:51 | 49.80532 | 7.95256 | 5000 ft | 218 kts | 299° |
| 2026-04-14 09:51 | 49.81504 | 7.93588 | 4977 ft | 211 kts | 333° |
| 2026-04-14 09:52 | 49.82895 | 7.93111 | 4989 ft | 208 kts | 7° |
| 2026-04-14 09:52 | 49.84212 | 7.93996 | 5006 ft | 213 kts | 38° |
| 2026-04-14 09:52 | 49.85314 | 7.95560 | 4995 ft | 216 kts | 43° |
| 2026-04-14 09:52 | 49.86399 | 7.97144 | 4985 ft | 214 kts | 40° |
| 2026-04-14 09:53 | 49.87512 | 7.98663 | 4989 ft | 213 kts | 40° |
| 2026-04-14 09:53 | 49.88617 | 8.00178 | 4978 ft | 211 kts | 40° |
| 2026-04-14 09:53 | 49.89712 | 8.01695 | 4986 ft | 210 kts | 40° |
| 2026-04-14 09:53 | 49.90797 | 8.03202 | 4988 ft | 210 kts | 40° |
| 2026-04-14 09:54 | 49.91881 | 8.04717 | 4983 ft | 210 kts | 40° |
| 2026-04-14 09:54 | 49.92871 | 8.06110 | 4986 ft | 210 kts | 44° |
| 2026-04-14 09:54 | 49.93655 | 8.08042 | 5037 ft | 217 kts | 66° |
| 2026-04-14 09:54 | 49.94355 | 8.10154 | 4947 ft | 222 kts | 55° |
| 2026-04-14 09:55 | 49.95034 | 8.12244 | 4951 ft | 217 kts | 76° |
| 2026-04-14 09:55 | 49.95370 | 8.14480 | 4964 ft | 209 kts | 69° |
| 2026-04-14 09:55 | 49.95838 | 8.16518 | 4937 ft | 194 kts | 67° |
| 2026-04-14 09:55 | 49.96298 | 8.18449 | 4693 ft | 187 kts | 67° |
| 2026-04-14 09:56 | 49.96737 | 8.20304 | 4409 ft | 179 kts | 66° |
| 2026-04-14 09:56 | 49.97154 | 8.22072 | 4182 ft | 172 kts | 66° |
| 2026-04-14 09:56 | 49.97565 | 8.23814 | 3937 ft | 172 kts | 66° |
| 2026-04-14 09:56 | 49.97976 | 8.25554 | 3703 ft | 170 kts | 66° |
| 2026-04-14 09:57 | 49.98381 | 8.27268 | 3470 ft | 169 kts | 66° |
| 2026-04-14 09:57 | 49.98779 | 8.28952 | 3203 ft | 161 kts | 66° |
| 2026-04-14 09:57 | 49.99152 | 8.30532 | 2983 ft | 152 kts | 66° |
| 2026-04-14 09:57 | 49.99504 | 8.32020 | 2808 ft | 149 kts | 67° |
| 2026-04-14 09:58 | 49.99847 | 8.33463 | 2603 ft | 151 kts | 68° |
| 2026-04-14 09:58 | 50.00215 | 8.35018 | 2376 ft | 154 kts | 67° |
| 2026-04-14 09:58 | 50.00580 | 8.36562 | 2176 ft | 148 kts | 66° |
| 2026-04-14 09:58 | 50.00926 | 8.38021 | 1943 ft | 138 kts | 66° |
| 2026-04-14 09:59 | 50.01250 | 8.39376 | 1758 ft | 135 kts | 67° |
| 2026-04-14 09:59 | 50.01568 | 8.40725 | 1574 ft | 130 kts | 67° |
| 2026-04-14 09:59 | 50.01877 | 8.42025 | 1401 ft | 128 kts | 67° |
| 2026-04-14 09:59 | 50.02191 | 8.43347 | 1222 ft | 132 kts | 66° |
| 2026-04-14 10:00 | 50.02498 | 8.44669 | 1127 ft | 131 kts | 67° |
| 2026-04-14 10:00 | 50.02830 | 8.46016 | 923 ft | 135 kts | 65° |
| 2026-04-14 10:00 | 50.03165 | 8.47364 | 682 ft | 134 kts | 68° |
| 2026-04-14 10:00 | 50.03473 | 8.48722 | 515 ft | 134 kts | 65° |
| 2026-04-14 10:01 | 50.03802 | 8.50100 | 363 ft | 136 kts | 67° |
| 2026-04-14 10:01 | 50.04092 | 8.51325 | 347 ft | 97 kts | 70° |
| 2026-04-14 10:01 | 50.04252 | 8.51992 | 347 ft | 36 kts | 70° |
| 2026-04-14 10:01 | 50.04312 | 8.52239 | 345 ft | 23 kts | 69° |
| 2026-04-14 10:02 | 50.04364 | 8.52466 | 347 ft | 16 kts | 71° |
| 2026-04-14 10:02 | 50.04386 | 8.52578 | 350 ft | 11 kts | 80° |
| 2026-04-14 10:02 | 50.04392 | 8.52721 | 344 ft | 14 kts | 90° |
| 2026-04-14 10:02 | 50.04385 | 8.52863 | 344 ft | 9 kts | 98° |
| 2026-04-14 10:03 | 50.04377 | 8.52945 | 344 ft | 7 kts | 98° |
| 2026-04-14 10:03 | 50.04374 | 8.52980 | 344 ft | 0 kts | 99° |
| 2026-04-14 10:03 | 50.04372 | 8.53001 | 354 ft | 4 kts | 98° |
| 2026-04-14 10:03 | 50.04367 | 8.53054 | 344 ft | 5 kts | 98° |
| 2026-04-14 10:04 | 50.04361 | 8.53109 | 351 ft | 5 kts | 98° |
| 2026-04-14 10:04 | 50.04356 | 8.53163 | 348 ft | 6 kts | 98° |
| 2026-04-14 10:04 | 50.04351 | 8.53249 | 349 ft | 10 kts | 91° |
| 2026-04-14 10:04 | 50.04376 | 8.53403 | 351 ft | 17 kts | 68° |
| 2026-04-14 10:05 | 50.04402 | 8.53579 | 349 ft | 17 kts | 84° |
| 2026-04-14 10:05 | 50.04413 | 8.53755 | 350 ft | 16 kts | 84° |
| 2026-04-14 10:05 | 50.04423 | 8.53923 | 344 ft | 15 kts | 85° |
| 2026-04-14 10:05 | 50.04434 | 8.54084 | 351 ft | 15 kts | 85° |
| 2026-04-14 10:06 | 50.04443 | 8.54238 | 352 ft | 14 kts | 84° |
| 2026-04-14 10:06 | 50.04452 | 8.54384 | 344 ft | 13 kts | 86° |
| 2026-04-14 10:06 | 50.04445 | 8.54524 | 346 ft | 13 kts | 102° |
| 2026-04-14 10:06 | 50.04406 | 8.54646 | 348 ft | 13 kts | 127° |
| 2026-04-14 10:07 | 50.04345 | 8.54740 | 344 ft | 12 kts | 144° |
| 2026-04-14 10:07 | 50.04270 | 8.54796 | 346 ft | 12 kts | 158° |
| 2026-04-14 10:07 | 50.04194 | 8.54839 | 344 ft | 12 kts | 161° |
| 2026-04-14 10:07 | 50.04124 | 8.54879 | 352 ft | 7 kts | 159° |
| 2026-04-14 10:08 | 50.04102 | 8.54891 | 348 ft | 1 kts | 160° |
| 2026-04-14 10:08 | 50.04097 | 8.54895 | 345 ft | 1 kts | 160° |
| 2026-04-14 10:08 | 50.04090 | 8.54898 | 345 ft | 2 kts | 160° |
| 2026-04-14 10:08 | 50.04043 | 8.54925 | 349 ft | 9 kts | 159° |
| 2026-04-14 10:09 | 50.03985 | 8.54961 | 347 ft | 9 kts | 159° |
| 2026-04-14 10:09 | 50.03929 | 8.54994 | 349 ft | 9 kts | 158° |
| 2026-04-14 10:09 | 50.03875 | 8.55029 | 352 ft | 8 kts | 154° |
| 2026-04-14 10:09 | 50.03848 | 8.55100 | 345 ft | 9 kts | 85° |
| 2026-04-14 10:10 | 50.03872 | 8.55212 | 353 ft | 15 kts | 70° |
| 2026-04-14 10:10 | 50.03921 | 8.55418 | 345 ft | 23 kts | 70° |
| 2026-04-14 10:10 | 50.03979 | 8.55649 | 348 ft | 23 kts | 68° |
| 2026-04-14 10:10 | 50.04031 | 8.55876 | 352 ft | 22 kts | 69° |
| 2026-04-14 10:11 | 50.04084 | 8.56094 | 352 ft | 21 kts | 69° |
| 2026-04-14 10:11 | 50.04134 | 8.56308 | 348 ft | 21 kts | 69° |
| 2026-04-14 10:11 | 50.04184 | 8.56514 | 353 ft | 20 kts | 70° |
| 2026-04-14 10:11 | 50.04231 | 8.56715 | 347 ft | 19 kts | 70° |
| 2026-04-14 10:12 | 50.04278 | 8.56909 | 348 ft | 19 kts | 69° |
| 2026-04-14 10:12 | 50.04323 | 8.57097 | 352 ft | 18 kts | 70° |
| 2026-04-14 10:12 | 50.04366 | 8.57278 | 346 ft | 18 kts | 69° |
| 2026-04-14 10:12 | 50.04407 | 8.57454 | 345 ft | 17 kts | 70° |
| 2026-04-14 10:13 | 50.04421 | 8.57511 | 345 ft | 0 kts | 69° |
| 2026-04-14 10:13 | 50.04422 | 8.57515 | 345 ft | 2 kts | 69° |
| 2026-04-14 10:13 | 50.04425 | 8.57530 | 345 ft | 0 kts | 69° |
| 2026-04-14 10:13 | 50.04434 | 8.57547 | 352 ft | 8 kts | 41° |
| 2026-04-14 10:14 | 50.04498 | 8.57556 | 353 ft | 10 kts | 347° |
| 2026-04-14 10:14 | 50.04545 | 8.57527 | 345 ft | 3 kts | 336° |
| 2026-04-14 10:14 | 50.04564 | 8.57513 | 344 ft | 3 kts | 335° |
| 2026-04-14 10:14 | 50.04584 | 8.57499 | 352 ft | 3 kts | 336° |
| 2026-04-14 10:15 | 50.04607 | 8.57508 | 345 ft | 3 kts | 38° |
| 2026-04-14 10:15 | 50.04620 | 8.57537 | 349 ft | 3 kts | 60° |
| 2026-04-14 10:15 | 50.04629 | 8.57569 | 350 ft | 3 kts | 70° |
| 2026-04-14 10:15 | 50.04639 | 8.57614 | 345 ft | 6 kts | 70° |
| 2026-04-14 10:16 | 50.04661 | 8.57706 | 354 ft | 12 kts | 70° |
| 2026-04-14 10:16 | 50.04690 | 8.57828 | 349 ft | 8 kts | 68° |
| 2026-04-14 10:16 | 50.04697 | 8.57855 | 345 ft | 7 kts | 68° |
| 2026-04-14 10:16 | 50.04742 | 8.57939 | 349 ft | 13 kts | 41° |
| 2026-04-14 10:17 | 50.04802 | 8.58046 | 344 ft | 13 kts | 66° |
| 2026-04-14 10:17 | 50.04831 | 8.58172 | 352 ft | 12 kts | 69° |
| 2026-04-14 10:17 | 50.04861 | 8.58297 | 352 ft | 12 kts | 70° |
| 2026-04-14 10:17 | 50.04892 | 8.58425 | 349 ft | 13 kts | 69° |
| 2026-04-14 10:18 | 50.04950 | 8.58671 | 352 ft | 11 kts | 70° |
| 2026-04-14 10:18 | 50.04971 | 8.58782 | 344 ft | 11 kts | 82° |
| 2026-04-14 10:18 | 50.04982 | 8.58895 | 348 ft | 10 kts | 75° |
| 2026-04-14 10:19 | 50.05000 | 8.58972 | 344 ft | 0 kts | 70° |
| 2026-04-14 10:19 | 50.05003 | 8.58984 | 344 ft | 3 kts | 70° |
| 2026-04-14 10:19 | 50.05012 | 8.59027 | 349 ft | 3 kts | 81° |
| 2026-04-14 10:19 | 50.04999 | 8.59055 | 344 ft | 3 kts | 142° |
| 2026-04-14 10:20 | 50.04978 | 8.59070 | 344 ft | 2 kts | 160° |
| 2026-04-14 10:20 | 50.04966 | 8.59076 | 351 ft | 2 kts | 161° |
| 2026-04-14 10:20 | 50.04962 | 8.59078 | 345 ft | 0 kts | 161° |